Latest Weather Observations for Mackay Airport

IDQ60801

Issued at 3:35 pm EST Sunday 26 October 2014 (issued every 30 minutes, with the page automatically refreshed every 10 minutes)

About weather observations | Map of weather stations | Latest weather observations for QLD | Other Formats
Station Details ID: 033045 Name: MACKAY AERO Lat: -21.17 Lon: 149.18 Height: 4.7 m
Data from the previous 72 hours. | See also: Recent months at Mackay Airport
Date/Time
EST
Temp
°C
App
Temp
°C
Dew
Point
Rel
Hum
%
Delta-T
°C
Wind Press
QNH
hPa
Press
MSL
hPa
Rain
since 9 am
mm
Dir
 
Spd
km/h
Gust
km/h
Spd
kts
Gust
kts
26/03:30pm 26.0 24.4 17.4 59 5.4 NE 22 30 12 16 1014.8 1014.8 0.0
26/03:00pm 26.3 24.8 17.6 58 5.5 ENE 22 33 12 18 1014.9 1014.9 0.0
26/02:30pm 25.5 23.7 16.9 59 5.3 ENE 22 28 12 15 1015.1 1015.1 0.0
26/02:00pm 27.0 26.1 18.3 59 5.5 ENE 20 28 11 15 1015.4 1015.4 0.0
26/01:30pm 26.1 24.2 17.7 60 5.3 ENE 24 28 13 15 1015.8 1015.8 0.0
26/01:00pm 26.4 24.9 17.7 58 5.5 ENE 22 30 12 16 1016.0 1016.0 0.0
26/12:30pm 26.1 24.9 17.5 59 5.4 E 20 28 11 15 1016.4 1016.4 0.0
26/12:00pm 26.0 24.6 17.1 58 5.5 E 20 26 11 14 1016.8 1016.8 0.0
26/11:30am 26.3 24.7 16.5 54 6.0 ENE 20 24 11 13 1017.3 1017.3 0.0
26/11:00am 25.9 24.5 17.0 58 5.5 E 20 24 11 13 1017.7 1017.7 0.0
26/10:30am 25.9 24.6 16.7 57 5.7 E 19 24 10 13 1018.0 1018.0 0.0
26/10:00am 25.5 24.3 16.1 56 5.7 E 17 22 9 12 1018.3 1018.3 0.0
26/09:30am 25.0 23.8 16.2 58 5.4 E 17 20 9 11 1018.6 1018.6 0.0
26/09:00am 25.6 25.3 17.3 60 5.2 ESE 15 19 8 10 1018.6 1018.6 0.0
26/08:30am 24.0 25.0 16.8 64 4.4 ENE 7 13 4 7 1018.8 1018.8 0.0
26/08:00am 23.4 24.6 17.4 69 3.7 WSW 7 9 4 5 1018.6 1018.6 0.0
26/07:30am 21.4 22.7 17.6 79 2.3 W 7 9 4 5 1018.5 1018.5 0.0
26/07:00am 19.3 20.0 17.1 87 1.3 W 9 11 5 6 1018.5 1018.5 0.0
26/06:30am 17.4 18.2 16.3 93 0.7 WSW 7 11 4 6 1018.1 1018.1 0.0
26/06:00am 15.9 16.4 15.1 95 0.5 WSW 6 7 3 4 1018.0 1018.0 0.0
26/05:30am 15.1 15.1 14.1 94 0.6 WSW 7 7 4 4 1017.8 1017.8 0.0
26/05:00am 15.9 15.9 15.1 95 0.5 WSW 9 11 5 6 1017.6 1017.6 0.0
26/04:30am 15.4 15.5 14.4 94 0.6 WSW 7 9 4 5 1017.3 1017.3 0.0
26/04:00am 16.2 16.5 15.1 93 0.6 WSW 7 11 4 6 1017.2 1017.2 0.0
26/03:30am 16.3 16.3 15.2 93 0.6 WSW 9 13 5 7 1017.1 1017.1 0.0
26/03:00am 16.9 17.5 15.8 93 0.6 ENE 7 9 4 5 1017.2 1017.2 0.0
26/02:30am 16.9 17.5 15.9 94 0.6 ENE 7 7 4 4 1017.2 1017.2 0.0
26/02:00am 17.0 17.6 15.9 93 0.6 ENE 7 9 4 5 1017.4 1017.4 0.0
26/01:30am 17.0 17.2 15.7 92 0.8 ENE 9 9 5 5 1017.7 1017.7 0.0
26/01:00am 17.2 17.9 15.5 90 1.0 ENE 6 9 3 5 1018.0 1018.0 0.0
26/12:30am 17.6 18.2 15.9 90 1.0 ENE 7 9 4 5 1018.3 1018.3 0.0
26/12:00am 17.9 18.6 16.2 90 1.0 ENE 7 9 4 5 1018.7 1018.7 0.0
 
Date/Time
EST
Temp
°C
App
Temp
°C
Dew
Point
Rel
Hum
%
Delta-T
°C
Wind Press
QNH
hPa
Press
MSL
hPa
Rain
since 9 am
mm
Dir
 
Spd
km/h
Gust
km/h
Spd
kts
Gust
kts
25/11:30pm 18.2 19.2 16.4 89 1.1 ENE 6 7 3 4 1018.9 1018.9 0.0
25/11:00pm 18.9 19.9 16.9 88 1.2 ENE 7 7 4 4 1019.2 1019.2 0.0
25/10:30pm 18.5 18.8 15.9 85 1.5 ENE 9 9 5 5 1019.4 1019.4 0.0
25/10:00pm 19.4 20.2 17.2 87 1.3 ENE 9 11 5 6 1019.6 1019.6 0.0
25/09:30pm 19.4 19.9 16.6 84 1.7 ENE 9 11 5 6 1019.5 1019.5 0.0
25/09:00pm 20.1 22.5 16.9 82 1.9 CALM 0 6 0 3 1019.5 1019.5 0.0
25/08:30pm 21.0 22.1 16.6 76 2.7 NE 6 7 3 4 1019.2 1019.2 0.0
25/08:00pm 22.0 23.3 17.6 76 2.7 NE 7 9 4 5 1018.9 1018.9 0.0
25/07:30pm 22.4 22.9 17.5 74 3.0 NE 11 13 6 7 1018.7 1018.7 0.0
25/07:00pm 22.4 23.0 17.8 75 2.9 ENE 11 13 6 7 1018.5 1018.5 0.0
25/06:30pm 22.7 23.5 17.4 72 3.3 ENE 9 11 5 6 1018.4 1018.4 0.0
25/06:00pm 23.3 23.1 16.8 67 4.0 E 13 17 7 9 1018.0 1018.0 0.0
25/05:30pm 24.1 23.1 16.6 63 4.6 E 17 20 9 11 1017.7 1017.7 0.0
25/05:00pm 24.7 23.6 17.7 65 4.4 E 20 28 11 15 1017.3 1017.3 0.0
25/04:30pm 25.0 23.4 17.5 63 4.7 E 22 28 12 15 1017.1 1017.1 0.0
25/04:00pm 25.6 23.9 17.3 60 5.2 E 22 28 12 15 1017.1 1017.1 0.0
25/03:30pm 26.2 24.7 17.6 59 5.4 E 22 28 12 15 1017.1 1017.1 0.0
25/03:00pm 26.2 24.4 17.0 57 5.7 E 22 30 12 16 1017.2 1017.2 0.0
25/02:30pm 26.6 25.4 17.4 57 5.8 E 20 28 11 15 1017.5 1017.5 0.0
25/02:00pm 25.7 23.8 16.8 58 5.5 E 22 28 12 15 1017.7 1017.7 0.0
25/01:30pm 26.6 25.4 17.4 57 5.8 E 20 26 11 14 1017.9 1017.9 0.0
25/01:00pm 26.9 25.9 17.9 57 5.7 ESE 20 28 11 15 1018.4 1018.4 0.0
25/12:30pm 26.3 25.2 17.4 58 5.6 ESE 19 26 10 14 1019.0 1019.0 0.0
25/12:00pm 26.4 25.9 17.7 58 5.5 E 17 24 9 13 1019.2 1019.2 0.0
25/11:30am 26.6 26.1 17.9 59 5.5 ESE 17 24 9 13 1019.6 1019.6 0.0
25/11:00am 25.9 25.6 17.3 59 5.4 SE 15 32 8 17 1020.1 1020.1 0.0
25/10:30am 25.4 25.4 17.1 60 5.2 E 13 19 7 10 1020.4 1020.4 0.0
25/10:00am 25.6 25.1 17.0 59 5.3 SE 15 20 8 11 1020.6 1020.6 0.0
25/09:30am 25.4 25.2 16.8 59 5.3 ESE 13 19 7 10 1020.8 1020.8 0.0
25/09:00am 25.3 25.3 17.2 61 5.0 ESE 13 17 7 9 1020.9 1020.9 0.0
25/08:30am 24.9 25.7 17.4 63 4.7 SE 9 17 5 9 1021.0 1021.0 0.0
25/08:00am 23.5 24.8 17.5 69 3.7 S 7 11 4 6 1020.9 1020.9 0.0
25/07:30am 21.9 22.8 17.5 76 2.7 SW 9 11 5 6 1020.7 1020.7 0.0
25/07:00am 20.2 21.3 17.2 83 1.8 W 7 11 4 6 1020.5 1020.5 0.0
25/06:30am 16.9 16.9 15.1 89 1.0 W 9 13 5 7 1020.4 1020.4 0.0
25/06:00am 15.4 15.0 14.1 92 0.7 WSW 9 11 5 6 1020.1 1020.1 0.0
25/05:30am 15.2 15.0 13.7 91 0.8 W 7 9 4 5 1019.7 1019.7 0.0
25/05:00am 15.4 15.3 13.9 91 0.8 W 7 9 4 5 1019.2 1019.2 0.0
25/04:30am 15.4 14.6 13.9 91 0.8 WSW 11 13 6 7 1019.1 1019.1 0.0
25/04:00am 16.3 16.4 14.5 89 1.0 W 7 9 4 5 1019.0 1019.0 0.0
25/03:30am 16.7 17.1 14.7 88 1.1 WSW 6 9 3 5 1018.9 1018.9 0.0
25/03:00am 17.7 17.9 15.7 88 1.2 W 9 13 5 7 1018.9 1018.9 0.0
25/02:30am 17.5 17.7 15.7 89 1.1 WSW 9 11 5 6 1019.1 1019.1 0.0
25/02:00am 17.0 17.0 15.3 90 1.0 WSW 9 11 5 6 1019.2 1019.2 0.0
25/01:30am 17.1 17.0 14.9 87 1.3 WSW 9 11 5 6 1019.6 1019.6 0.0
25/01:00am 17.8 18.0 15.8 88 1.2 SW 9 11 5 6 1020.2 1020.2 0.0
25/12:30am 18.2 18.4 15.8 86 1.4 SW 9 11 5 6 1020.6 1020.6 0.0
25/12:00am 18.3 18.1 15.7 85 1.5 SW 11 13 6 7 1020.8 1020.8 0.0
 
Date/Time
EST
Temp
°C
App
Temp
°C
Dew
Point
Rel
Hum
%
Delta-T
°C
Wind Press
QNH
hPa
Press
MSL
hPa
Rain
since 9 am
mm
Dir
 
Spd
km/h
Gust
km/h
Spd
kts
Gust
kts
24/11:30pm 18.7 18.3 16.1 85 1.5 SW 13 17 7 9 1021.1 1021.1 0.0
24/11:00pm 19.1 18.9 15.6 80 2.1 SW 11 15 6 8 1021.2 1021.2 0.0
24/10:30pm 22.1 21.9 17.5 75 2.8 ESE 15 19 8 10 1021.3 1021.3 0.0
24/10:00pm 22.2 21.9 17.3 74 3.0 ESE 15 19 8 10 1021.2 1021.2 0.0
24/09:30pm 22.0 21.5 16.9 73 3.1 E 15 19 8 10 1021.1 1021.1 0.0
24/09:00pm 22.1 21.3 17.0 73 3.1 E 17 20 9 11 1020.9 1020.9 0.0
24/08:30pm 22.0 21.1 16.9 73 3.1 E 17 20 9 11 1020.7 1020.7 0.0
24/08:00pm 22.2 20.9 16.7 71 3.3 ESE 19 22 10 12 1020.4 1020.4 0.0
24/07:30pm 22.1 21.6 16.8 72 3.2 E 15 19 8 10 1020.1 1020.1 0.0
24/07:00pm 21.8 21.2 15.6 68 3.7 E 13 17 7 9 1019.9 1019.9 0.0
24/06:30pm 22.0 21.6 16.1 69 3.6 ESE 13 17 7 9 1019.7 1019.7 0.0
24/06:00pm 22.8 22.3 15.9 65 4.2 E 13 19 7 10 1019.5 1019.5 0.0
24/05:30pm 23.6 22.1 15.4 60 4.9 E 17 20 9 11 1019.1 1019.1 0.0
24/05:00pm 24.2 22.3 15.1 56 5.4 E 19 24 10 13 1018.7 1018.7 0.0
24/04:30pm 24.7 23.1 15.9 58 5.3 ESE 19 24 10 13 1018.6 1018.6 0.0
24/04:00pm 25.2 23.3 15.2 54 6.0 SE 19 22 10 12 1018.4 1018.4 0.0
24/03:30pm 25.1 23.3 15.4 55 5.9 ESE 19 24 10 13 1018.6 1018.6 0.0
24/03:00pm 25.6 23.5 15.3 53 6.2 E 20 28 11 15 1018.7 1018.7 0.0
24/02:30pm 26.2 24.2 15.6 52 6.4 ESE 20 30 11 16 1018.8 1018.8 0.0
24/02:00pm 26.3 24.1 16.0 53 6.3 E 22 30 12 16 1019.0 1019.0 0.0
24/01:30pm 26.4 23.5 15.1 49 6.8 ESE 24 30 13 16 1019.3 1019.3 0.0
24/01:00pm 26.1 23.6 15.2 51 6.6 ESE 22 30 12 16 1019.5 1019.5 0.0
24/12:30pm 26.3 24.0 15.7 52 6.5 ESE 22 28 12 15 1019.9 1019.9 0.0
24/12:00pm 25.7 23.1 14.8 51 6.5 ESE 22 28 12 15 1020.0 1020.0 0.0
24/11:30am 26.2 23.6 15.0 50 6.7 ESE 22 30 12 16 1020.2 1020.2 0.0
24/11:00am 25.8 23.6 14.9 51 6.5 ESE 20 26 11 14 1020.5 1020.5 0.0
24/10:30am 26.4 24.7 15.8 52 6.5 SE 19 24 10 13 1020.8 1020.8 0.0
24/10:00am 24.8 23.6 15.1 54 5.8 ESE 15 22 8 12 1021.1 1021.1 0.0
24/09:30am 24.7 23.1 15.1 55 5.8 ESE 17 24 9 13 1021.2 1021.2 0.0
24/09:00am 24.4 22.9 15.3 57 5.5 SE 17 22 9 12 1021.2 1021.2 0.0
24/08:30am 23.7 22.3 15.5 60 4.9 SE 17 20 9 11 1021.3 1021.3 0.0
24/08:00am 22.6 22.9 17.1 71 3.4 S 11 15 6 8 1021.1 1021.1 0.0
24/07:30am 21.0 21.8 17.2 79 2.3 WSW 9 13 5 7 1021.0 1021.0 0.0
24/07:00am 18.8 18.9 16.6 87 1.3 WSW 11 13 6 7 1020.6 1020.6 0.0
24/06:30am 17.0 17.5 15.5 91 0.9 WSW 7 11 4 6 1020.5 1020.5 0.0
24/06:00am 15.2 15.3 14.4 95 0.5 W 7 9 4 5 1020.1 1020.1 0.0
24/05:30am 14.7 14.2 13.9 95 0.4 WSW 9 11 5 6 1019.7 1019.7 0.0
24/05:00am 14.7 14.6 13.9 95 0.4 WSW 7 9 4 5 1019.4 1019.4 0.0
24/04:30am 14.3 13.6 13.3 94 0.6 WSW 9 11 5 6 1019.0 1019.0 0.0
24/04:00am 15.0 14.6 14.2 95 0.5 W 9 13 5 7 1018.7 1018.7 0.0
24/03:30am 15.2 15.3 14.4 95 0.5 W 7 9 4 5 1018.8 1018.8 0.0
24/03:00am 15.3 15.3 14.3 94 0.6 SW 7 11 4 6 1019.0 1019.0 0.0
24/02:30am 15.7 15.9 14.7 94 0.6 WSW 7 9 4 5 1019.1 1019.1 0.0
24/02:00am 15.3 14.6 14.3 94 0.6 SW 11 13 6 7 1019.3 1019.3 0.0
24/01:30am 15.4 15.5 13.9 91 0.8 WSW 6 9 3 5 1019.6 1019.6 0.0
24/01:00am 15.5 15.6 13.9 90 0.9 WSW 6 7 3 4 1019.8 1019.8 0.0
24/12:30am 15.9 15.6 14.4 91 0.9 E 9 11 5 6 1020.3 1020.3 0.0
24/12:00am 16.7 17.3 15.2 91 0.9 E 6 9 3 5 1020.5 1020.5 0.0
 
Date/Time
EST
Temp
°C
App
Temp
°C
Dew
Point
Rel
Hum
%
Delta-T
°C
Wind Press
QNH
hPa
Press
MSL
hPa
Rain
since 9 am
mm
Dir
 
Spd
km/h
Gust
km/h
Spd
kts
Gust
kts
23/11:30pm 16.7 16.9 14.7 88 1.1 E 7 9 4 5 1020.8 1020.8 0.0
23/11:00pm 17.2 17.2 15.2 88 1.2 SW 9 11 5 6 1021.0 1021.0 0.0
23/10:30pm 17.6 17.1 14.9 84 1.6 SW 11 13 6 7 1021.0 1021.0 0.0
23/10:00pm 20.9 20.5 16.1 74 2.9 E 13 17 7 9 1020.8 1020.8 0.0
23/09:30pm 20.8 20.3 15.8 73 3.0 ESE 13 19 7 10 1020.5 1020.5 0.0
23/09:00pm 21.4 20.6 16.1 72 3.2 E 15 20 8 11 1020.4 1020.4 0.0
23/08:30pm 21.7 20.2 16.4 72 3.2 E 19 22 10 12 1019.9 1019.9 0.0
23/08:00pm 21.7 20.2 16.4 72 3.2 ESE 19 22 10 12 1019.7 1019.7 0.0
23/07:30pm 21.9 20.4 16.8 73 3.1 ESE 20 24 11 13 1019.6 1019.6 0.0
23/07:00pm 21.9 21.1 17.1 74 2.9 ESE 17 22 9 12 1019.3 1019.3 0.0
23/06:30pm 22.0 21.0 16.7 72 3.2 E 17 20 9 11 1018.9 1018.9 0.0
23/06:00pm 22.6 21.7 16.9 70 3.5 E 17 20 9 11 1018.6 1018.6 0.0
23/05:30pm 23.3 21.8 16.4 65 4.2 E 19 24 10 13 1018.3 1018.3 0.0
23/05:00pm 24.0 22.7 16.8 64 4.4 ESE 19 24 10 13 1018.0 1018.0 0.0
23/04:30pm 24.3 22.6 16.3 61 4.9 ESE 20 24 11 13 1017.8 1017.8 0.0
23/04:00pm 24.9 23.0 16.6 60 5.1 ESE 22 30 12 16 1017.5 1017.5 0.0

Other Formats:

Comma delimited format used in spreadsheet applications
http://www.bom.gov.au/fwo/IDQ60801/IDQ60801.95367.axf

JavaScript Object Notation format (JSON) in row-major order
http://www.bom.gov.au/fwo/IDQ60801/IDQ60801.95367.json